Time;durP1;ratioP1;P1;durP2;ratioP2;P2;SDS_P1;SDS_P2;PMS_P1;PMS_P2;Temp;Humidity;BMP_temperature;BMP_pressure;BME280_temperature;BME280_humidity;BME280_pressure;Samples;Min_cycle;Max_cycle;Signal;HPM_P1;HPM_P2
2022/12/25 00:01:12;;;;;;;42.28;11.75;;;;;;;2.52;100.00;100715.97;4914485;29;20624;-77
2022/12/25 00:03:38;;;;;;;43.60;11.68;;;;;;;2.53;100.00;100725.72;4914010;29;20036;-78
2022/12/25 00:06:04;;;;;;;32.13;11.38;;;;;;;2.48;100.00;100728.03;4914285;29;20067;-78
2022/12/25 00:08:30;;;;;;;38.28;11.82;;;;;;;2.58;100.00;100719.84;4913152;29;20074;-78
2022/12/25 00:11:02;;;;;;;46.33;12.07;;;;;;;2.71;100.00;100722.94;4912833;29;20040;-78
2022/12/25 00:13:28;;;;;;;47.28;12.75;;;;;;;2.91;100.00;100719.94;4917586;29;20048;-78
2022/12/25 00:15:55;;;;;;;38.10;12.35;;;;;;;2.89;100.00;100730.03;4933368;29;20040;-78
2022/12/25 00:18:21;;;;;;;39.22;12.63;;;;;;;2.81;100.00;100716.56;4932869;29;20074;-78
2022/12/25 00:20:59;;;;;;;44.72;13.25;;;;;;;2.68;100.00;100717.88;4933525;29;20043;-78
2022/12/25 00:23:26;;;;;;;34.27;12.47;;;;;;;2.59;100.00;100721.53;4928454;29;20028;-77
2022/12/25 00:25:53;;;;;;;34.37;12.17;;;;;;;2.52;100.00;100713.28;4904749;29;20134;-78
2022/12/25 00:28:20;;;;;;;37.25;13.38;;;;;;;2.43;100.00;100709.69;4923183;29;20338;-78
2022/12/25 00:30:47;;;;;;;39.72;12.60;;;;;;;2.43;100.00;100714.22;4933382;29;20044;-78
2022/12/25 00:33:13;;;;;;;44.88;12.73;;;;;;;2.58;100.00;100717.13;4932781;29;20487;-78
2022/12/25 00:35:39;;;;;;;41.72;13.27;;;;;;;2.62;100.00;100707.72;4933280;29;20051;-77
2022/12/25 00:38:05;;;;;;;43.08;13.18;;;;;;;2.60;100.00;100712.44;4932553;29;20040;-77
2022/12/25 00:40:31;;;;;;;44.20;13.00;;;;;;;2.69;100.00;100724.94;4905513;29;20095;-78
2022/12/25 00:42:57;;;;;;;40.38;11.77;;;;;;;2.75;100.00;100739.59;4933311;29;20492;-78
2022/12/25 00:45:23;;;;;;;45.33;13.13;;;;;;;2.69;100.00;100741.09;4929365;29;20047;-78
2022/12/25 00:47:50;;;;;;;40.97;12.60;;;;;;;2.66;100.00;100746.81;4927066;29;20491;-78
2022/12/25 00:50:17;;;;;;;39.10;12.80;;;;;;;2.63;100.00;100746.28;4928579;29;20049;-77
2022/12/25 00:52:43;;;;;;;44.42;12.60;;;;;;;2.56;100.00;100752.34;4933273;29;20032;-77
2022/12/25 00:55:09;;;;;;;39.92;12.43;;;;;;;2.50;100.00;100758.34;4932861;29;20468;-77
2022/12/25 00:57:35;;;;;;;36.47;11.75;;;;;;;2.53;100.00;100759.88;4932729;29;20079;-77
2022/12/25 01:00:01;;;;;;;37.58;12.88;;;;;;;2.49;100.00;100764.75;4932833;29;20072;-77
2022/12/25 01:02:27;;;;;;;41.35;12.20;;;;;;;2.42;100.00;100767.25;4926383;29;20043;-77
2022/12/25 01:04:55;;;;;;;36.78;12.35;;;;;;;2.39;100.00;100759.50;4919139;29;20036;-78
2022/12/25 01:07:24;;;;;;;36.70;11.68;;;;;;;2.22;100.00;100757.72;4932425;29;20044;-77
2022/12/25 01:12:37;;;;;;;36.05;10.57;;;;;;;2.26;100.00;100759.06;4903213;29;20044;-77
2022/12/25 01:15:05;;;;;;;37.60;11.38;;;;;;;2.31;100.00;100762.13;4904902;29;20099;-77
2022/12/25 01:17:31;;;;;;;;;;;;;;;2.27;100.00;100763.44;4904760;29;20135;-78
2022/12/25 01:19:57;;;;;;;36.72;11.07;;;;;;;2.27;100.00;100760.75;4933770;29;20005;-77
2022/12/25 01:22:24;;;;;;;37.95;11.88;;;;;;;2.26;100.00;100757.25;4938612;29;20039;-77
2022/12/25 01:24:50;;;;;;;29.52;10.90;;;;;;;2.11;100.00;100764.19;4935502;29;20079;-77
2022/12/25 01:27:16;;;;;;;39.05;10.82;;;;;;;2.24;100.00;100769.16;4936361;29;20494;-77
2022/12/25 01:29:42;;;;;;;31.55;9.52;;;;;;;2.34;100.00;100774.44;4930089;29;20042;-77
2022/12/25 01:32:08;;;;;;;40.08;10.55;;;;;;;2.38;100.00;100765.84;4935905;29;20031;-77
2022/12/25 01:34:34;;;;;;;33.28;9.90;;;;;;;2.39;100.00;100764.03;4902715;29;20404;-77
2022/12/25 01:37:00;;;;;;;31.60;9.43;;;;;;;2.40;100.00;100763.03;4907457;29;20032;-77
2022/12/25 01:39:27;;;;;;;32.55;10.68;;;;;;;2.43;100.00;100763.56;4911865;29;20383;-77
2022/12/25 01:41:54;;;;;;;34.67;10.13;;;;;;;2.41;100.00;100762.88;4916207;29;20515;-77
2022/12/25 01:44:35;;;;;;;39.63;10.68;;;;;;;2.31;100.00;100764.81;4908985;29;20059;-77
2022/12/25 01:47:06;;;;;;;50.15;10.23;;;;;;;2.26;100.00;100756.38;4934959;29;20126;-77
2022/12/25 01:49:36;;;;;;;35.55;10.05;;;;;;;2.24;100.00;100759.22;4935931;29;20391;-78
2022/12/25 01:52:10;;;;;;;34.92;9.73;;;;;;;2.21;100.00;100758.72;4935783;29;20039;-77
2022/12/25 01:54:45;;;;;;;28.88;9.15;;;;;;;2.23;100.00;100762.09;4919055;29;20047;-77
2022/12/25 01:57:17;;;;;;;33.03;9.43;;;;;;;2.28;100.00;100770.53;4935309;29;20171;-77
2022/12/25 01:59:43;;;;;;;36.50;10.55;;;;;;;2.25;100.00;100763.59;4926355;29;20119;-77
2022/12/25 02:02:10;;;;;;;33.20;8.93;;;;;;;2.14;100.00;100763.88;4935454;29;20043;-78
2022/12/25 02:05:00;;;;;;;35.97;8.68;;;;;;;2.02;100.00;100763.28;4935626;29;20040;-78
2022/12/25 02:07:27;;;;;;;;;;;;;;;2.08;100.00;100780.66;4918573;29;20503;-78
2022/12/25 02:09:53;;;;;;;36.85;9.38;;;;;;;2.06;100.00;100783.50;4930993;29;20372;-77
2022/12/25 02:12:21;;;;;;;34.28;9.10;;;;;;;2.13;100.00;100778.34;4935026;29;20058;-77
2022/12/25 02:14:49;;;;;;;43.63;9.88;;;;;;;2.09;100.00;100782.34;4935767;29;20048;-77
2022/12/25 02:17:41;;;;;;;37.42;9.02;;;;;;;2.13;100.00;100787.28;4933037;29;20063;-77
2022/12/25 02:20:35;;;;;;;27.63;8.93;;;;;;;2.10;100.00;100784.88;4935605;29;20036;-77
2022/12/25 02:23:32;;;;;;;27.77;8.95;;;;;;;2.08;100.00;100786.88;4934386;29;20248;-78
2022/12/25 02:26:25;;;;;;;32.30;8.52;;;;;;;2.00;100.00;100779.63;4931416;29;20098;-77
2022/12/25 02:29:16;;;;;;;28.15;8.73;;;;;;;1.98;100.00;100783.47;4904691;29;20107;-76
2022/12/25 02:32:26;;;;;;;29.45;8.52;;;;;;;2.02;100.00;100774.06;4935728;29;20032;-76
2022/12/25 02:35:07;;;;;;;27.42;8.15;;;;;;;2.05;100.00;100776.44;4890444;29;20076;-76
2022/12/25 02:37:49;;;;;;;24.10;8.25;;;;;;;2.00;100.00;100784.13;4877719;29;20493;-77
2022/12/25 02:40:18;;;;;;;32.40;8.55;;;;;;;1.96;100.00;100788.16;4919375;29;20048;-77
2022/12/25 03:06:42;;;;;;;36.38;8.07;;;;;;;2.42;100.00;100772.63;4931956;29;20480;-77
2022/12/25 03:12:10;;;;;;;26.38;8.43;;;;;;;2.67;100.00;100775.44;4901715;29;20400;-77
2022/12/25 03:16:49;;;;;;;25.65;8.45;;;;;;;2.67;100.00;100764.69;4931055;29;20044;-77
2022/12/25 03:17:32;;;;;;;32.25;8.52;;;;;;;2.73;100.00;100768.56;4937889;29;20044;-77
2022/12/25 03:28:14;;;;;;;31.17;8.57;;;;;;;2.79;100.00;100765.22;4948297;29;20074;-76
2022/12/25 03:31:12;;;;;;;29.27;9.15;;;;;;;2.78;100.00;100766.22;4941550;29;20043;-77
2022/12/25 04:36:34;;;;;;;33.45;9.32;;;;;;;3.39;100.00;100732.81;4927567;29;20046;-77
2022/12/25 04:38:29;;;;;;;26.75;7.95;;;;;;;3.41;100.00;100734.34;4928861;29;20048;-78
2022/12/25 04:40:55;;;;;;;24.67;8.48;;;;;;;3.44;100.00;100731.31;4937799;29;20051;-77
2022/12/25 04:43:23;;;;;;;29.30;9.18;;;;;;;3.56;100.00;100733.66;4933125;29;20036;-77
2022/12/25 04:45:54;;;;;;;26.48;8.63;;;;;;;3.59;100.00;100736.06;4932779;29;20036;-77
2022/12/25 04:48:20;;;;;;;22.85;7.32;;;;;;;3.64;100.00;100738.22;4933094;29;20135;-77
2022/12/25 04:50:47;;;;;;;22.10;8.15;;;;;;;3.65;100.00;100737.22;4927356;29;20044;-78
2022/12/25 04:53:13;;;;;;;34.63;8.70;;;;;;;3.70;100.00;100730.31;4926561;29;20035;-77
2022/12/25 04:55:39;;;;;;;33.42;7.80;;;;;;;3.90;100.00;100721.88;4928374;29;20491;-77
2022/12/25 04:58:05;;;;;;;26.75;8.18;;;;;;;4.08;100.00;100728.91;4908315;29;20047;-77
2022/12/25 05:00:31;;;;;;;28.77;8.20;;;;;;;4.17;100.00;100735.97;4927615;29;20064;-77
2022/12/25 05:02:58;;;;;;;27.90;8.30;;;;;;;4.17;100.00;100736.81;4937986;29;20040;-77
2022/12/25 05:05:24;;;;;;;29.20;7.57;;;;;;;4.20;100.00;100743.75;4926330;29;20083;-77
2022/12/25 05:07:50;;;;;;;24.60;7.70;;;;;;;4.27;100.00;100749.31;4934843;29;20043;-77
2022/12/25 05:10:16;;;;;;;24.30;7.85;;;;;;;4.32;100.00;100736.09;4930883;29;20051;-77
2022/12/25 05:12:42;;;;;;;24.85;7.70;;;;;;;4.35;100.00;100734.91;4927467;29;20038;-77
2022/12/25 05:15:09;;;;;;;24.15;7.68;;;;;;;4.29;100.00;100731.06;4935722;29;20067;-78
2022/12/25 05:17:36;;;;;;;25.10;7.03;;;;;;;4.17;100.00;100715.22;4930055;29;20031;-77
2022/12/25 05:20:05;;;;;;;26.00;6.97;;;;;;;4.28;100.00;100732.06;4934183;29;20047;-77
2022/12/25 05:22:31;;;;;;;24.58;7.65;;;;;;;4.30;100.00;100730.88;4927256;29;20043;-77
2022/12/25 05:24:57;;;;;;;22.05;7.10;;;;;;;4.36;100.00;100729.34;4930287;29;20059;-76
2022/12/25 05:27:23;;;;;;;25.33;6.80;;;;;;;4.41;100.00;100731.53;4936373;29;20403;-76
2022/12/25 05:29:49;;;;;;;26.98;7.18;;;;;;;4.45;100.00;100728.28;4935836;29;20040;-77
2022/12/25 05:32:15;;;;;;;23.60;6.95;;;;;;;4.56;100.00;100728.94;4935941;29;20110;-75
2022/12/25 05:34:42;;;;;;;25.85;7.90;;;;;;;4.62;100.00;100725.53;4935679;29;20079;-76
2022/12/25 05:37:08;;;;;;;26.27;7.88;;;;;;;4.63;100.00;100716.41;4929309;29;20044;-76
2022/12/25 05:39:34;;;;;;;25.40;7.90;;;;;;;4.64;100.00;100728.03;4935940;29;20035;-76
2022/12/25 05:42:00;;;;;;;25.27;7.65;;;;;;;4.63;100.00;100723.66;4929264;29;20036;-77
2022/12/25 05:44:26;;;;;;;20.90;7.05;;;;;;;4.55;100.00;100725.38;4935502;29;20035;-77
2022/12/25 05:46:52;;;;;;;17.15;6.68;;;;;;;4.51;100.00;100729.44;4932769;29;20036;-76
2022/12/25 05:49:18;;;;;;;22.02;6.35;;;;;;;4.42;100.00;100719.72;4929545;29;20043;-77
2022/12/25 05:51:45;;;;;;;21.38;6.63;;;;;;;4.38;100.00;100721.06;4935627;29;20042;-77
2022/12/25 05:54:11;;;;;;;23.45;7.22;;;;;;;4.43;100.00;100714.09;4935525;29;20035;-77
2022/12/25 05:56:37;;;;;;;23.40;7.47;;;;;;;4.50;100.00;100721.50;4911971;29;20128;-77
2022/12/25 05:59:03;;;;;;;22.50;6.78;;;;;;;4.64;100.00;100715.38;4929845;29;20036;-77
2022/12/25 06:01:29;;;;;;;24.90;7.18;;;;;;;4.70;100.00;100721.97;4929939;29;20036;-77
2022/12/25 06:03:56;;;;;;;19.20;7.10;;;;;;;4.74;100.00;100718.69;4935171;29;20479;-77
2022/12/25 06:06:22;;;;;;;27.02;7.75;;;;;;;4.72;100.00;100722.63;4913184;29;20036;-77
2022/12/25 06:08:48;;;;;;;16.63;6.50;;;;;;;4.68;100.00;100715.88;4930756;29;20047;-78
2022/12/25 06:11:14;;;;;;;19.65;6.78;;;;;;;4.65;100.00;100719.78;4935479;29;20106;-77
2022/12/25 06:13:41;;;;;;;24.55;6.88;;;;;;;4.64;100.00;100722.63;4939732;29;20051;-76
2022/12/25 06:16:09;;;;;;;23.73;7.03;;;;;;;4.61;100.00;100718.44;4928420;29;20059;-78
2022/12/25 06:18:36;;;;;;;;;;;;;;;4.60;100.00;100700.53;4930359;29;20032;-77
2022/12/25 06:21:10;;;;;;;23.30;6.75;;;;;;;4.54;100.00;100706.66;4936045;29;19919;-78
2022/12/25 06:23:37;;;;;;;21.58;7.68;;;;;;;4.54;100.00;100695.84;4935453;29;21938;-78
2022/12/25 06:26:09;;;;;;;22.05;7.00;;;;;;;4.57;100.00;100700.91;4934495;29;20043;-79
2022/12/25 06:28:35;;;;;;;23.17;6.65;;;;;;;4.66;100.00;100702.53;4941433;29;20043;-78
2022/12/25 06:31:06;;;;;;;20.77;6.93;;;;;;;4.77;100.00;100695.88;4939899;29;20530;-78
2022/12/25 06:33:33;;;;;;;27.83;7.10;;;;;;;4.79;100.00;100693.03;4942743;29;20126;-78
2022/12/25 06:36:02;;;;;;;21.77;6.72;;;;;;;4.75;100.00;100696.06;4916905;29;20051;-77
2022/12/25 06:38:28;;;;;;;20.25;6.70;;;;;;;4.72;100.00;100714.50;4914437;29;20046;-77
2022/12/25 06:40:55;;;;;;;24.48;7.35;;;;;;;4.79;100.00;100711.94;4942455;29;20399;-77
2022/12/25 06:43:21;;;;;;;25.42;6.88;;;;;;;4.80;100.00;100709.06;4942930;29;20068;-77
2022/12/25 06:45:48;;;;;;;26.20;7.35;;;;;;;4.81;100.00;100710.72;4925377;29;20040;-79
2022/12/25 06:48:14;;;;;;;21.50;7.80;;;;;;;4.84;100.00;100704.97;4929857;29;20032;-78
2022/12/25 06:50:43;;;;;;;21.95;7.45;;;;;;;4.78;100.00;100697.56;4923132;29;20071;-80
2022/12/25 06:53:10;;;;;;;19.45;6.32;;;;;;;4.81;100.00;100691.81;4908727;29;20040;-79
2022/12/25 06:55:36;;;;;;;21.73;6.25;;;;;;;4.90;100.00;100693.44;4937066;29;21440;-78
2022/12/25 06:58:02;;;;;;;20.35;6.03;;;;;;;5.03;100.00;100687.44;4929017;29;20069;-78
2022/12/25 07:00:28;;;;;;;22.35;6.40;;;;;;;5.14;100.00;100682.66;4937070;29;20455;-79
2022/12/25 07:02:54;;;;;;;25.55;6.20;;;;;;;5.14;100.00;100680.78;4932320;29;20055;-80
2022/12/25 07:05:20;;;;;;;21.77;5.80;;;;;;;5.13;100.00;100679.09;4929690;29;20032;-79
2022/12/25 07:07:46;;;;;;;21.52;6.05;;;;;;;5.03;100.00;100682.03;4907641;29;20052;-79
2022/12/25 07:10:12;;;;;;;13.57;5.88;;;;;;;5.04;100.00;100691.84;4928470;29;20066;-80
2022/12/25 07:12:38;;;;;;;19.75;5.60;;;;;;;4.99;100.00;100694.22;4902866;29;20126;-79
2022/12/25 07:15:05;;;;;;;20.15;6.63;;;;;;;4.91;100.00;100688.88;4930950;29;20377;-80
2022/12/25 07:17:33;;;;;;;23.42;6.35;;;;;;;4.89;100.00;100682.81;4932693;29;20519;-80
2022/12/25 07:19:59;;;;;;;21.48;6.35;;;;;;;4.99;100.00;100688.00;4917034;29;20098;-79
2022/12/25 07:22:27;;;;;;;26.70;6.38;;;;;;;5.17;100.00;100693.09;4932290;29;20399;-80
2022/12/25 07:24:54;;;;;;;25.30;6.90;;;;;;;5.31;100.00;100686.94;4931558;29;20047;-80
2022/12/25 07:27:20;;;;;;;22.92;7.25;;;;;;;5.31;100.00;100692.34;4924617;29;20384;-80
2022/12/25 07:29:46;;;;;;;21.15;6.47;;;;;;;5.30;100.00;100695.22;4930563;29;20046;-80
2022/12/25 07:32:12;;;;;;;19.50;6.03;;;;;;;5.44;100.00;100686.31;4934070;29;20075;-80
2022/12/25 07:34:38;;;;;;;20.88;6.45;;;;;;;5.55;100.00;100692.31;4933726;29;20090;-80
2022/12/25 07:37:04;;;;;;;23.58;6.07;;;;;;;5.68;100.00;100692.50;4929409;29;20499;-81
2022/12/25 07:39:30;;;;;;;18.17;5.13;;;;;;;5.71;100.00;100696.72;4919677;29;20044;-82
2022/12/25 07:41:56;;;;;;;22.35;6.18;;;;;;;5.76;100.00;100699.72;4933241;29;20072;-81
2022/12/25 07:44:26;;;;;;;22.05;5.70;;;;;;;5.78;100.00;100700.38;4922396;29;20059;-83
2022/12/25 07:46:52;;;;;;;17.98;5.40;;;;;;;5.69;100.00;100702.31;4913026;29;20140;-80
2022/12/25 07:49:18;;;;;;;18.83;5.35;;;;;;;5.70;100.00;100698.63;4931781;29;20066;-81
2022/12/25 07:51:44;;;;;;;16.80;4.47;;;;;;;5.71;100.00;100692.19;4914046;29;20499;-81
2022/12/25 07:54:11;;;;;;;15.13;4.97;;;;;;;5.69;100.00;100696.06;4926768;29;20040;-80
2022/12/25 07:56:37;;;;;;;17.33;4.45;;;;;;;5.63;100.00;100684.09;4932320;29;20175;-80
2022/12/25 07:59:03;;;;;;;15.32;5.07;;;;;;;5.55;100.00;100678.78;4931023;29;20082;-81
2022/12/25 08:01:29;;;;;;;15.35;5.10;;;;;;;5.42;100.00;100668.56;4913366;29;20096;-80
2022/12/25 08:03:57;;;;;;;17.75;4.75;;;;;;;5.33;100.00;100663.25;4930545;29;20106;-79
2022/12/25 08:06:28;;;;;;;16.65;5.38;;;;;;;5.29;100.00;100653.78;4931416;29;20046;-81
2022/12/25 08:08:55;;;;;;;16.35;4.68;;;;;;;5.25;100.00;100643.53;4911370;29;20044;-80
2022/12/25 08:11:21;;;;;;;17.13;5.53;;;;;;;5.22;100.00;100643.88;4930444;29;20032;-79
2022/12/25 08:13:47;;;;;;;21.60;4.85;;;;;;;5.12;100.00;100644.13;4938506;29;20059;-78
2022/12/25 08:16:13;;;;;;;19.25;4.93;;;;;;;5.11;100.00;100639.75;4939210;29;20479;-78
2022/12/25 08:18:41;;;;;;;13.77;4.25;;;;;;;5.17;100.00;100650.69;4938787;29;20119;-78
2022/12/25 08:21:10;;;;;;;18.52;4.43;;;;;;;5.42;100.00;100638.81;4941536;29;20043;-77
2022/12/25 08:23:39;;;;;;;17.95;5.05;;;;;;;5.64;100.00;100647.06;4940246;29;20563;-79
2022/12/25 08:26:07;;;;;;;17.17;4.85;;;;;;;5.82;100.00;100644.00;4937932;29;20514;-79
2022/12/25 08:28:34;;;;;;;15.45;4.43;;;;;;;5.95;100.00;100651.47;4932993;29;20084;-79
2022/12/25 08:31:09;;;;;;;13.30;4.18;;;;;;;6.06;100.00;100661.88;4905432;29;20048;-80
2022/12/25 08:33:36;;;;;;;17.02;5.80;;;;;;;6.18;100.00;100665.81;4934370;29;20039;-81
2022/12/25 08:36:05;;;;;;;16.02;4.72;;;;;;;6.28;100.00;100675.50;4941580;29;20031;-79
2022/12/25 08:38:31;;;;;;;16.55;4.53;;;;;;;6.31;100.00;100684.13;4946437;29;20084;-79
2022/12/25 08:40:57;;;;;;;15.80;4.60;;;;;;;6.35;100.00;100692.69;4927355;29;20044;-80
2022/12/25 08:43:23;;;;;;;14.13;4.90;;;;;;;6.36;100.00;100690.84;4942257;29;20051;-79
2022/12/25 08:45:49;;;;;;;12.82;4.47;;;;;;;6.36;100.00;100691.66;4945494;29;20542;-79
2022/12/25 08:48:15;;;;;;;13.90;4.93;;;;;;;6.38;100.00;100703.19;4943982;29;20043;-80
2022/12/25 08:50:46;;;;;;;13.70;4.53;;;;;;;6.36;100.00;100713.34;4944119;29;20538;-82
2022/12/25 08:53:13;;;;;;;15.02;4.50;;;;;;;6.34;100.00;100718.09;4943515;29;20039;-83
2022/12/25 08:55:39;;;;;;;16.03;4.13;;;;;;;6.33;100.00;100705.59;4943826;29;20035;-79
2022/12/25 08:58:06;;;;;;;13.43;3.63;;;;;;;6.38;100.00;100702.31;4938255;29;20301;-82
2022/12/25 09:00:32;;;;;;;16.13;4.60;;;;;;;6.41;100.00;100704.66;4936105;29;20080;-79
2022/12/25 09:02:58;;;;;;;13.70;4.25;;;;;;;6.42;100.00;100709.03;4936753;29;20076;-79
2022/12/25 09:05:24;;;;;;;13.82;4.53;;;;;;;6.47;100.00;100710.19;4902624;29;20047;-80
2022/12/25 09:07:50;;;;;;;16.45;5.03;;;;;;;6.48;100.00;100700.16;4935242;29;20059;-80
2022/12/25 09:10:16;;;;;;;13.15;4.85;;;;;;;6.44;100.00;100694.28;4944385;29;20048;-82
2022/12/25 09:12:42;;;;;;;12.60;4.65;;;;;;;6.47;100.00;100685.78;4938447;29;20106;-80
2022/12/25 09:15:09;;;;;;;11.00;4.30;;;;;;;6.54;100.00;100676.88;4934990;29;20473;-80
2022/12/25 09:17:35;;;;;;;15.82;4.30;;;;;;;6.57;100.00;100662.94;4930408;29;20036;-79
2022/12/25 09:20:01;;;;;;;15.43;5.38;;;;;;;6.61;100.00;100666.97;4931114;29;20126;-80
2022/12/25 09:22:28;;;;;;;14.70;5.43;;;;;;;6.55;100.00;100651.47;4917371;29;20047;-80
2022/12/25 09:24:54;;;;;;;9.90;4.80;;;;;;;6.67;100.00;100662.66;4927170;29;20047;-80
2022/12/25 09:27:20;;;;;;;12.88;4.95;;;;;;;6.87;100.00;100660.16;4930753;29;20032;-81
2022/12/25 09:29:46;;;;;;;13.50;4.82;;;;;;;7.03;100.00;100681.63;4918134;29;20702;-80
2022/12/25 09:32:12;;;;;;;15.35;5.18;;;;;;;7.18;100.00;100691.59;4930609;29;20113;-81
2022/12/25 09:34:38;;;;;;;14.43;5.80;;;;;;;7.30;100.00;100698.19;4922068;29;20488;-81
2022/12/25 09:37:04;;;;;;;17.83;5.75;;;;;;;7.46;100.00;100715.25;4931875;29;20044;-81
2022/12/25 09:39:30;;;;;;;16.75;5.50;;;;;;;7.53;100.00;100713.44;4927990;29;20412;-81
2022/12/25 09:42:08;;;;;;;14.15;4.78;;;;;;;7.49;100.00;100712.13;4928104;29;20040;-82
2022/12/25 09:44:41;;;;;;;13.38;4.75;;;;;;;7.48;100.00;100711.28;4928790;29;20055;-83
2022/12/25 09:47:15;;;;;;;13.18;4.72;;;;;;;7.38;100.00;100718.06;4932050;29;20054;-82
2022/12/25 09:50:05;;;;;;;13.25;5.25;;;;;;;7.27;100.00;100706.72;4906779;29;20059;-84
2022/12/25 09:52:45;;;;;;;20.23;6.78;;;;;;;7.18;100.00;100702.44;4932294;29;20391;-83
2022/12/25 09:55:11;;;;;;;19.33;6.65;;;;;;;7.08;100.00;100682.91;4933221;29;20039;-82
2022/12/25 09:57:38;;;;;;;18.73;6.43;;;;;;;7.03;100.00;100676.19;4920258;29;20062;-82
2022/12/25 10:00:14;;;;;;;17.17;6.35;;;;;;;7.00;100.00;100682.00;4942626;29;20530;-83
2022/12/25 10:03:18;;;;;;;21.33;6.30;;;;;;;7.04;100.00;100694.16;4941151;29;20070;-80
2022/12/25 10:06:01;;;;;;;18.17;5.63;;;;;;;7.12;100.00;100697.78;4937975;29;20043;-80
2022/12/25 10:09:04;;;;;;;20.98;5.93;;;;;;;7.22;100.00;100690.16;4932688;29;20035;-78
2022/12/25 10:12:06;;;;;;;18.45;5.68;;;;;;;7.20;100.00;100684.09;4930514;29;20509;-79
2022/12/25 10:15:01;;;;;;;14.35;5.65;;;;;;;7.13;100.00;100656.03;4928093;29;20074;-78
2022/12/25 10:17:48;;;;;;;16.33;5.72;;;;;;;7.08;100.00;100631.38;4911777;29;20411;-80
2022/12/25 10:20:35;;;;;;;15.15;5.65;;;;;;;7.03;100.00;100621.94;4921700;29;20472;-80
2022/12/25 10:23:08;;;;;;;15.60;5.68;;;;;;;7.05;100.00;100611.75;4936565;29;20094;-83
2022/12/25 10:25:37;;;;;;;16.10;5.78;;;;;;;7.08;100.00;100609.66;4921934;29;20039;-80
2022/12/25 10:28:22;;;;;;;14.93;5.70;;;;;;;7.13;100.00;100607.19;4929841;29;20051;-79
2022/12/25 10:30:51;;;;;;;13.85;6.13;;;;;;;7.16;100.00;100604.94;4933367;29;20063;-80
2022/12/25 10:33:17;;;;;;;15.43;5.85;;;;;;;7.19;100.00;100606.44;4928534;29;20117;-84
2022/12/25 10:35:44;;;;;;;13.00;6.72;;;;;;;7.17;100.00;100600.38;4936863;29;20127;-82
2022/12/25 10:38:18;;;;;;;16.77;6.75;;;;;;;7.17;100.00;100601.19;4938437;29;20436;-82
2022/12/25 10:41:02;;;;;;;13.63;5.60;;;;;;;7.28;100.00;100596.25;4914109;29;20061;-81
2022/12/25 10:43:37;;;;;;;16.30;6.15;;;;;;;7.37;100.00;100594.25;4939857;29;20099;-83
2022/12/25 10:46:10;;;;;;;16.58;5.70;;;;;;;7.52;100.00;100594.16;4907947;29;20175;-82
2022/12/25 10:48:47;;;;;;;18.50;5.80;;;;;;;7.63;100.00;100599.88;4925209;29;20043;-83
2022/12/25 10:51:13;;;;;;;15.35;5.28;;;;;;;7.61;100.00;100591.09;4934017;29;20634;-82
2022/12/25 10:53:42;;;;;;;11.00;5.22;;;;;;;7.62;100.00;100583.81;4938167;28;20032;-83
2022/12/25 10:56:16;;;;;;;12.25;4.75;;;;;;;7.53;100.00;100593.13;4934551;29;20102;-83
2022/12/25 10:58:42;;;;;;;14.32;5.10;;;;;;;7.57;100.00;100618.84;4936073;29;20118;-81
2022/12/25 11:01:09;;;;;;;13.90;4.60;;;;;;;7.59;100.00;100616.78;4937895;29;20043;-80
2022/12/25 11:03:40;;;;;;;15.07;5.00;;;;;;;7.54;100.00;100617.38;4934523;29;20392;-80
2022/12/25 11:06:20;;;;;;;16.33;4.70;;;;;;;7.62;100.00;100632.66;4929613;29;20036;-80
2022/12/25 11:08:53;;;;;;;10.68;4.78;;;;;;;7.69;100.00;100619.13;4922061;29;20526;-79
2022/12/25 11:11:20;;;;;;;16.30;4.68;;;;;;;7.75;100.00;100616.47;4901486;29;20043;-80
2022/12/25 11:13:52;;;;;;;13.13;4.38;;;;;;;7.78;100.00;100620.66;4897016;29;20076;-80
2022/12/25 11:16:39;;;;;;;15.57;5.00;;;;;;;7.71;100.00;100636.09;4902651;29;20551;-81
2022/12/25 11:19:27;;;;;;;10.10;4.60;;;;;;;7.68;100.00;100617.44;4904987;29;20028;-79
2022/12/25 11:21:56;;;;;;;10.05;4.30;;;;;;;7.67;100.00;100615.75;4915195;29;20047;-82
2022/12/25 11:24:26;;;;;;;11.63;4.60;;;;;;;7.66;100.00;100605.94;4914618;29;20043;-80
2022/12/25 11:26:55;;;;;;;14.23;4.55;;;;;;;7.66;100.00;100586.94;4907857;29;20103;-81
2022/12/25 11:29:41;;;;;;;10.68;4.22;;;;;;;7.65;100.00;100593.41;4922932;29;20044;-78
2022/12/25 11:32:24;;;;;;;12.95;4.32;;;;;;;7.71;100.00;100595.34;4918352;29;20032;-81
2022/12/25 11:34:52;;;;;;;12.95;4.90;;;;;;;7.75;100.00;100593.91;4922220;29;20416;-80
2022/12/25 11:37:44;;;;;;;9.25;4.03;;;;;;;7.84;100.00;100587.25;4917117;29;20036;-77
2022/12/25 11:40:56;;;;;;;12.00;4.57;;;;;;;7.88;100.00;100599.41;4916843;29;20040;-80
2022/12/25 11:43:39;;;;;;;12.38;4.28;;;;;;;7.92;100.00;100610.72;4904146;29;20131;-81
2022/12/25 11:46:12;;;;;;;13.45;4.40;;;;;;;7.95;100.00;100604.88;4913737;29;20456;-81
2022/12/25 11:48:55;;;;;;;12.82;4.30;;;;;;;7.90;100.00;100594.59;4905686;29;20040;-80
2022/12/25 11:51:27;;;;;;;12.27;4.32;;;;;;;7.85;100.00;100583.50;4914658;29;20411;-82
2022/12/25 11:53:59;;;;;;;13.40;4.53;;;;;;;7.82;100.00;100573.06;4907136;29;20400;-80
2022/12/25 11:56:28;;;;;;;10.30;4.50;;;;;;;7.81;100.00;100570.53;4907770;29;20100;-80
2022/12/25 11:59:02;;;;;;;10.63;4.18;;;;;;;7.80;100.00;100566.13;4916986;29;20071;-81
2022/12/25 12:01:34;;;;;;;13.40;4.20;;;;;;;7.78;100.00;100560.91;4922584;29;20050;-80
2022/12/25 12:04:13;;;;;;;14.02;4.10;;;;;;;7.75;100.00;100539.59;4916184;29;20072;-80
2022/12/25 12:07:17;;;;;;;11.18;4.60;;;;;;;7.72;100.00;100531.84;4917249;29;20083;-79
2022/12/25 12:10:12;;;;;;;10.63;4.40;;;;;;;7.73;100.00;100520.78;4892150;29;20063;-80
2022/12/25 12:13:05;;;;;;;13.82;5.22;;;;;;;7.71;100.00;100520.13;4910233;29;20084;-81
2022/12/25 12:15:48;;;;;;;8.30;4.40;;;;;;;7.74;100.00;100516.19;4913504;29;20052;-84
2022/12/25 12:18:21;;;;;;;13.55;5.97;;;;;;;7.70;100.00;100509.50;4915625;29;20063;-80
2022/12/25 12:21:07;;;;;;;12.27;5.40;;;;;;;7.69;100.00;100499.63;4896159;29;20032;-82
2022/12/25 12:23:49;;;;;;;12.75;5.80;;;;;;;7.68;100.00;100495.25;4913769;29;20052;-80
2022/12/25 12:26:24;;;;;;;11.45;5.72;;;;;;;7.64;100.00;100500.25;4913961;29;20040;-79
2022/12/25 12:28:54;;;;;;;14.32;6.40;;;;;;;7.60;100.00;100497.09;4909716;29;20080;-79
2022/12/25 12:31:20;;;;;;;14.70;6.25;;;;;;;7.59;100.00;100486.47;4907708;29;20045;-79
2022/12/25 12:33:52;;;;;;;14.38;6.03;;;;;;;7.56;100.00;100481.41;4914245;29;20404;-81
2022/12/25 12:36:21;;;;;;;18.50;6.35;;;;;;;7.51;100.00;100476.59;4909427;29;20040;-80
2022/12/25 12:38:49;;;;;;;13.07;6.20;;;;;;;7.52;100.00;100482.84;4912132;29;20107;-80
2022/12/25 12:41:16;;;;;;;17.20;6.80;;;;;;;7.49;100.00;100475.97;4909823;29;20385;-81
2022/12/25 12:43:45;;;;;;;15.52;5.88;;;;;;;7.48;100.00;100477.81;4908585;29;20542;-80
2022/12/25 12:46:22;;;;;;;13.93;6.50;;;;;;;7.47;100.00;100470.72;4912523;29;20090;-81
2022/12/25 12:48:51;;;;;;;10.93;5.95;;;;;;;7.47;100.00;100456.31;4909070;29;20048;-80
2022/12/25 12:51:29;;;;;;;12.10;5.90;;;;;;;7.50;100.00;100450.50;4899629;29;20042;-80
2022/12/25 12:54:19;;;;;;;17.27;5.53;;;;;;;7.49;100.00;100454.25;4910431;29;20051;-81
2022/12/25 12:56:58;;;;;;;12.68;5.55;;;;;;;7.51;100.00;100446.72;4911387;29;20040;-82
2022/12/25 12:59:26;;;;;;;15.55;5.78;;;;;;;7.52;100.00;100440.25;4912395;29;20095;-79
2022/12/25 13:02:19;;;;;;;18.17;5.43;;;;;;;7.50;100.00;100431.50;4913821;29;20452;-79
2022/12/25 13:05:13;;;;;;;14.40;5.35;;;;;;;7.49;100.00;100430.63;4924895;29;20044;-82
2022/12/25 13:08:23;;;;;;;17.45;5.78;;;;;;;7.48;100.00;100434.38;4915435;29;20131;-83
2022/12/25 13:11:02;;;;;;;13.38;5.20;;;;;;;7.51;100.00;100426.88;4903207;29;20373;-80
2022/12/25 13:13:35;;;;;;;11.13;5.78;;;;;;;7.46;100.00;100422.91;4927069;29;20052;-81
2022/12/25 13:16:03;;;;;;;14.02;5.80;;;;;;;7.49;100.00;100421.66;4919908;29;20444;-80